sensor_id;sensor_type;location;lat;lon;timestamp;pressure;altitude;pressure_sealevel;temperature;humidity
69630;BME280;56857;52.212;5.496;2022-10-26T00:00:45;101493.84;;;10.49;99.28
69630;BME280;56857;52.212;5.496;2022-10-26T00:03:11;101489.38;;;10.50;99.44
69630;BME280;56857;52.212;5.496;2022-10-26T00:05:37;101492.88;;;10.50;99.06
69630;BME280;56857;52.212;5.496;2022-10-26T00:08:02;101491.88;;;10.51;99.31
69630;BME280;56857;52.212;5.496;2022-10-26T00:10:28;101486.59;;;10.51;99.30
69630;BME280;56857;52.212;5.496;2022-10-26T00:12:53;101481.28;;;10.51;99.36
69630;BME280;56857;52.212;5.496;2022-10-26T00:15:19;101481.28;;;10.51;99.20
69630;BME280;56857;52.212;5.496;2022-10-26T00:17:46;101472.63;;;10.49;99.20
69630;BME280;56857;52.212;5.496;2022-10-26T00:20:12;101476.28;;;10.48;99.10
69630;BME280;56857;52.212;5.496;2022-10-26T00:22:39;101467.50;;;10.48;99.23
69630;BME280;56857;52.212;5.496;2022-10-26T00:25:05;101468.34;;;10.48;99.57
69630;BME280;56857;52.212;5.496;2022-10-26T00:27:33;101457.72;;;10.48;99.42
69630;BME280;56857;52.212;5.496;2022-10-26T00:30:00;101463.84;;;10.49;99.78
69630;BME280;56857;52.212;5.496;2022-10-26T00:32:25;101458.72;;;10.47;99.72
69630;BME280;56857;52.212;5.496;2022-10-26T00:34:51;101462.19;;;10.48;99.77
69630;BME280;56857;52.212;5.496;2022-10-26T00:37:16;101459.25;;;10.51;99.98
69630;BME280;56857;52.212;5.496;2022-10-26T00:39:41;101461.91;;;10.51;99.75
69630;BME280;56857;52.212;5.496;2022-10-26T00:42:11;101454.09;;;10.49;100.00
69630;BME280;56857;52.212;5.496;2022-10-26T00:47:36;101448.94;;;10.48;100.00
69630;BME280;56857;52.212;5.496;2022-10-26T00:50:07;101446.44;;;10.46;100.00
69630;BME280;56857;52.212;5.496;2022-10-26T00:52:33;101437.81;;;10.44;100.00
69630;BME280;56857;52.212;5.496;2022-10-26T00:54:59;101442.97;;;10.46;100.00
69630;BME280;56857;52.212;5.496;2022-10-26T00:57:25;101448.94;;;10.48;100.00
69630;BME280;56857;52.212;5.496;2022-10-26T00:59:52;101444.47;;;10.48;100.00
69630;BME280;56857;52.212;5.496;2022-10-26T01:02:19;101433.56;;;10.51;100.00
69630;BME280;56857;52.212;5.496;2022-10-26T01:04:45;101440.38;;;10.54;100.00
69630;BME280;56857;52.212;5.496;2022-10-26T01:07:11;101434.09;;;10.55;100.00
69630;BME280;56857;52.212;5.496;2022-10-26T01:09:37;101433.25;;;10.54;100.00
69630;BME280;56857;52.212;5.496;2022-10-26T01:12:03;101430.44;;;10.56;100.00
69630;BME280;56857;52.212;5.496;2022-10-26T01:14:29;101423.88;;;10.60;100.00
69630;BME280;56857;52.212;5.496;2022-10-26T01:17:13;101422.03;;;10.60;100.00
69630;BME280;56857;52.212;5.496;2022-10-26T01:20:05;101415.75;;;10.61;100.00
69630;BME280;56857;52.212;5.496;2022-10-26T01:28:44;101407.03;;;10.69;100.00
69630;BME280;56857;52.212;5.496;2022-10-26T01:31:26;101400.56;;;10.72;100.00
69630;BME280;56857;52.212;5.496;2022-10-26T01:34:01;101401.09;;;10.75;100.00
69630;BME280;56857;52.212;5.496;2022-10-26T01:36:54;101391.16;;;10.77;100.00
69630;BME280;56857;52.212;5.496;2022-10-26T01:39:27;101396.13;;;10.80;100.00
69630;BME280;56857;52.212;5.496;2022-10-26T01:41:59;101393.34;;;10.82;100.00
69630;BME280;56857;52.212;5.496;2022-10-26T01:44:30;101394.16;;;10.82;100.00
69630;BME280;56857;52.212;5.496;2022-10-26T01:46:59;101389.69;;;10.83;100.00
69630;BME280;56857;52.212;5.496;2022-10-26T01:49:28;101386.72;;;10.86;100.00
69630;BME280;56857;52.212;5.496;2022-10-26T01:51:57;101376.44;;;10.83;100.00
69630;BME280;56857;52.212;5.496;2022-10-26T01:54:22;101373.78;;;10.83;100.00
69630;BME280;56857;52.212;5.496;2022-10-26T01:56:51;101378.25;;;10.82;100.00
69630;BME280;56857;52.212;5.496;2022-10-26T01:59:32;101370.28;;;10.82;100.00
69630;BME280;56857;52.212;5.496;2022-10-26T02:05:00;101373.47;;;10.86;100.00
69630;BME280;56857;52.212;5.496;2022-10-26T02:16:07;101363.56;;;10.96;100.00
69630;BME280;56857;52.212;5.496;2022-10-26T02:18:41;101364.25;;;10.98;100.00
69630;BME280;56857;52.212;5.496;2022-10-26T02:21:18;101370.22;;;11.00;100.00
69630;BME280;56857;52.212;5.496;2022-10-26T02:23:46;101369.06;;;11.03;100.00
69630;BME280;56857;52.212;5.496;2022-10-26T02:26:15;101373.22;;;11.05;100.00
69630;BME280;56857;52.212;5.496;2022-10-26T02:28:47;101370.41;;;11.07;100.00
69630;BME280;56857;52.212;5.496;2022-10-26T02:31:13;101367.44;;;11.10;100.00
69630;BME280;56857;52.212;5.496;2022-10-26T02:33:43;101366.44;;;11.11;100.00
69630;BME280;56857;52.212;5.496;2022-10-26T02:36:13;101366.44;;;11.11;100.00
69630;BME280;56857;52.212;5.496;2022-10-26T02:38:41;101364.31;;;11.14;100.00
69630;BME280;56857;52.212;5.496;2022-10-26T02:41:07;101357.34;;;11.13;100.00
69630;BME280;56857;52.212;5.496;2022-10-26T02:43:37;101352.03;;;11.13;100.00
69630;BME280;56857;52.212;5.496;2022-10-26T02:46:09;101355.34;;;11.16;100.00
69630;BME280;56857;52.212;5.496;2022-10-26T02:48:37;101348.38;;;11.14;100.00
69630;BME280;56857;52.212;5.496;2022-10-26T02:53:58;101344.56;;;11.17;100.00
69630;BME280;56857;52.212;5.496;2022-10-26T02:56:34;101341.94;;;11.17;100.00
69630;BME280;56857;52.212;5.496;2022-10-26T02:59:04;101335.94;;;11.15;100.00
69630;BME280;56857;52.212;5.496;2022-10-26T03:01:32;101331.47;;;11.16;100.00
69630;BME280;56857;52.212;5.496;2022-10-26T03:03:58;101332.13;;;11.18;100.00
69630;BME280;56857;52.212;5.496;2022-10-26T03:06:25;101338.13;;;11.20;100.00
69630;BME280;56857;52.212;5.496;2022-10-26T03:08:50;101339.59;;;11.22;100.00
69630;BME280;56857;52.212;5.496;2022-10-26T03:11:17;101338.63;;;11.23;100.00
69630;BME280;56857;52.212;5.496;2022-10-26T03:13:42;101330.50;;;11.25;100.00
69630;BME280;56857;52.212;5.496;2022-10-26T03:16:08;101330.50;;;11.25;100.00
69630;BME280;56857;52.212;5.496;2022-10-26T03:18:34;101318.91;;;11.26;100.00
69630;BME280;56857;52.212;5.496;2022-10-26T03:20:59;101325.19;;;11.25;100.00
69630;BME280;56857;52.212;5.496;2022-10-26T03:23:24;101321.56;;;11.26;100.00
69630;BME280;56857;52.212;5.496;2022-10-26T03:25:50;101319.72;;;11.26;100.00
69630;BME280;56857;52.212;5.496;2022-10-26T03:28:15;101315.25;;;11.27;100.00
69630;BME280;56857;52.212;5.496;2022-10-26T03:30:40;101330.16;;;11.28;100.00
69630;BME280;56857;52.212;5.496;2022-10-26T03:33:06;101322.88;;;11.30;100.00
69630;BME280;56857;52.212;5.496;2022-10-26T03:35:34;101328.88;;;11.32;100.00
69630;BME280;56857;52.212;5.496;2022-10-26T03:37:59;101336.50;;;11.35;100.00
69630;BME280;56857;52.212;5.496;2022-10-26T03:40:24;101335.50;;;11.36;100.00
69630;BME280;56857;52.212;5.496;2022-10-26T03:42:50;101329.19;;;11.37;100.00
69630;BME280;56857;52.212;5.496;2022-10-26T03:45:15;101328.22;;;11.38;100.00
69630;BME280;56857;52.212;5.496;2022-10-26T03:47:48;101325.56;;;11.38;100.00
69630;BME280;56857;52.212;5.496;2022-10-26T03:50:17;101325.41;;;11.40;100.00
69630;BME280;56857;52.212;5.496;2022-10-26T03:52:43;101319.91;;;11.41;100.00
69630;BME280;56857;52.212;5.496;2022-10-26T03:55:09;101318.09;;;11.42;100.00
69630;BME280;56857;52.212;5.496;2022-10-26T03:57:39;101319.91;;;11.41;100.00
69630;BME280;56857;52.212;5.496;2022-10-26T04:00:05;101317.94;;;11.43;100.00
69630;BME280;56857;52.212;5.496;2022-10-26T04:02:30;101314.28;;;11.44;100.00
69630;BME280;56857;52.212;5.496;2022-10-26T04:04:56;101305.34;;;11.45;100.00
69630;BME280;56857;52.212;5.496;2022-10-26T04:07:21;101309.81;;;11.45;100.00
69630;BME280;56857;52.212;5.496;2022-10-26T04:09:46;101304.50;;;11.45;100.00
69630;BME280;56857;52.212;5.496;2022-10-26T04:12:12;101307.31;;;11.43;100.00
69630;BME280;56857;52.212;5.496;2022-10-26T04:14:37;101308.31;;;11.42;100.00
69630;BME280;56857;52.212;5.496;2022-10-26T04:17:02;101311.78;;;11.43;100.00
69630;BME280;56857;52.212;5.496;2022-10-26T04:19:28;101306.81;;;11.40;100.00
69630;BME280;56857;52.212;5.496;2022-10-26T04:21:53;101311.94;;;11.41;100.00
69630;BME280;56857;52.212;5.496;2022-10-26T04:24:18;101303.47;;;11.37;100.00
69630;BME280;56857;52.212;5.496;2022-10-26T04:26:43;101307.97;;;11.37;100.00
69630;BME280;56857;52.212;5.496;2022-10-26T04:29:09;101308.97;;;11.36;100.00
69630;BME280;56857;52.212;5.496;2022-10-26T04:31:35;101314.44;;;11.34;100.00
69630;BME280;56857;52.212;5.496;2022-10-26T04:34:00;101302.16;;;11.33;100.00
69630;BME280;56857;52.212;5.496;2022-10-26T04:36:25;101303.97;;;11.33;100.00
69630;BME280;56857;52.212;5.496;2022-10-26T04:38:51;101298.00;;;11.31;100.00
69630;BME280;56857;52.212;5.496;2022-10-26T04:41:16;101300.00;;;11.29;100.00
69630;BME280;56857;52.212;5.496;2022-10-26T04:43:41;101301.97;;;11.27;100.00
69630;BME280;56857;52.212;5.496;2022-10-26T04:46:12;101298.66;;;11.25;100.00
69630;BME280;56857;52.212;5.496;2022-10-26T04:48:37;101296.00;;;11.25;100.00
69630;BME280;56857;52.212;5.496;2022-10-26T04:51:02;101296.00;;;11.25;100.00
69630;BME280;56857;52.212;5.496;2022-10-26T04:53:28;101298.50;;;11.26;100.00
69630;BME280;56857;52.212;5.496;2022-10-26T04:55:57;101293.19;;;11.26;100.00
69630;BME280;56857;52.212;5.496;2022-10-26T04:58:22;101289.72;;;11.26;100.00
69630;BME280;56857;52.212;5.496;2022-10-26T05:00:47;101279.91;;;11.26;100.00
69630;BME280;56857;52.212;5.496;2022-10-26T05:03:13;101288.03;;;11.25;100.00
69630;BME280;56857;52.212;5.496;2022-10-26T05:05:38;101288.22;;;11.23;100.00
69630;BME280;56857;52.212;5.496;2022-10-26T05:08:04;101291.84;;;11.22;100.00
69630;BME280;56857;52.212;5.496;2022-10-26T05:10:30;101296.16;;;11.23;100.00
69630;BME280;56857;52.212;5.496;2022-10-26T05:12:56;101303.31;;;11.23;100.00
69630;BME280;56857;52.212;5.496;2022-10-26T05:15:22;101289.03;;;11.24;100.00
69630;BME280;56857;52.212;5.496;2022-10-26T05:18:02;101300.31;;;11.26;100.00
69630;BME280;56857;52.212;5.496;2022-10-26T05:20:30;101299.16;;;11.28;100.00
69630;BME280;56857;52.212;5.496;2022-10-26T05:23:01;101295.03;;;11.26;100.00
69630;BME280;56857;52.212;5.496;2022-10-26T05:27:58;101289.03;;;11.24;100.00
69630;BME280;56857;52.212;5.496;2022-10-26T05:30:23;101298.97;;;11.22;100.00
69630;BME280;56857;52.212;5.496;2022-10-26T05:32:53;101294.66;;;11.21;100.00
69630;BME280;56857;52.212;5.496;2022-10-26T05:35:18;101299.16;;;11.20;100.00
69630;BME280;56857;52.212;5.496;2022-10-26T05:37:44;101293.66;;;11.22;100.00
69630;BME280;56857;52.212;5.496;2022-10-26T05:40:10;101294.66;;;11.21;100.00
69630;BME280;56857;52.212;5.496;2022-10-26T05:42:35;101294.84;;;11.19;100.00
69630;BME280;56857;52.212;5.496;2022-10-26T05:45:01;101295.66;;;11.20;100.00
69630;BME280;56857;52.212;5.496;2022-10-26T05:47:26;101290.50;;;11.18;100.00
69630;BME280;56857;52.212;5.496;2022-10-26T05:49:51;101290.50;;;11.18;100.00
69630;BME280;56857;52.212;5.496;2022-10-26T05:52:17;101289.69;;;11.18;100.00
69630;BME280;56857;52.212;5.496;2022-10-26T05:54:42;101295.81;;;11.18;100.00
69630;BME280;56857;52.212;5.496;2022-10-26T05:57:10;101296.63;;;11.19;100.00
69630;BME280;56857;52.212;5.496;2022-10-26T05:59:36;101306.28;;;11.20;100.00
69630;BME280;56857;52.212;5.496;2022-10-26T06:04:46;101309.75;;;11.20;100.00
69630;BME280;56857;52.212;5.496;2022-10-26T06:07:13;101311.59;;;11.20;100.00
69630;BME280;56857;52.212;5.496;2022-10-26T06:09:40;101314.25;;;11.20;100.00
69630;BME280;56857;52.212;5.496;2022-10-26T06:12:07;101312.41;;;11.20;100.00
69630;BME280;56857;52.212;5.496;2022-10-26T06:14:33;101302.81;;;11.19;100.00
69630;BME280;56857;52.212;5.496;2022-10-26T06:17:11;101311.59;;;11.20;100.00
69630;BME280;56857;52.212;5.496;2022-10-26T06:22:32;101308.09;;;11.19;100.00
69630;BME280;56857;52.212;5.496;2022-10-26T06:30:22;101313.56;;;11.18;100.00
69630;BME280;56857;52.212;5.496;2022-10-26T06:32:48;101319.03;;;11.16;100.00
69630;BME280;56857;52.212;5.496;2022-10-26T06:38:08;101324.69;;;11.13;100.00
69630;BME280;56857;52.212;5.496;2022-10-26T06:40:37;101320.50;;;11.10;100.00
69630;BME280;56857;52.212;5.496;2022-10-26T06:43:09;101319.69;;;11.10;100.00
69630;BME280;56857;52.212;5.496;2022-10-26T06:45:39;101314.53;;;11.08;100.00
69630;BME280;56857;52.212;5.496;2022-10-26T06:48:09;101322.66;;;11.07;100.00
69630;BME280;56857;52.212;5.496;2022-10-26T06:50:44;101325.31;;;11.07;100.00
69630;BME280;56857;52.212;5.496;2022-10-26T06:55:47;101327.78;;;11.08;100.00
69630;BME280;56857;52.212;5.496;2022-10-26T06:58:19;101325.97;;;11.09;100.00
69630;BME280;56857;52.212;5.496;2022-10-26T07:00:48;101321.47;;;11.09;100.00
69630;BME280;56857;52.212;5.496;2022-10-26T07:03:15;101323.16;;;11.10;100.00
69630;BME280;56857;52.212;5.496;2022-10-26T07:05:42;101329.31;;;11.11;100.00
69630;BME280;56857;52.212;5.496;2022-10-26T07:08:07;101329.97;;;11.13;100.00
69630;BME280;56857;52.212;5.496;2022-10-26T07:10:33;101323.66;;;11.14;100.00
69630;BME280;56857;52.212;5.496;2022-10-26T07:12:58;101332.31;;;11.16;100.00
69630;BME280;56857;52.212;5.496;2022-10-26T07:15:23;101330.31;;;11.18;100.00
69630;BME280;56857;52.212;5.496;2022-10-26T07:17:49;101318.38;;;11.22;100.00
69630;BME280;56857;52.212;5.496;2022-10-26T07:20:16;101318.91;;;11.26;100.00
69630;BME280;56857;52.212;5.496;2022-10-26T07:22:42;101327.38;;;11.29;100.00
69630;BME280;56857;52.212;5.496;2022-10-26T07:25:08;101326.22;;;11.32;100.00
69630;BME280;56857;52.212;5.496;2022-10-26T07:27:34;101328.56;;;11.35;100.00
69630;BME280;56857;52.212;5.496;2022-10-26T07:30:00;101332.69;;;11.37;100.00
69630;BME280;56857;52.212;5.496;2022-10-26T07:32:25;101333.34;;;11.40;100.00
69630;BME280;56857;52.212;5.496;2022-10-26T07:34:51;101336.84;;;11.40;100.00
69630;BME280;56857;52.212;5.496;2022-10-26T07:37:16;101334.03;;;11.42;100.00
69630;BME280;56857;52.212;5.496;2022-10-26T07:39:41;101337.50;;;11.42;100.00
69630;BME280;56857;52.212;5.496;2022-10-26T07:42:07;101341.81;;;11.43;100.00
69630;BME280;56857;52.212;5.496;2022-10-26T07:44:32;101344.34;;;11.45;100.00
69630;BME280;56857;52.212;5.496;2022-10-26T07:46:58;101349.47;;;11.46;100.00
69630;BME280;56857;52.212;5.496;2022-10-26T07:49:23;101348.47;;;11.47;100.00
69630;BME280;56857;52.212;5.496;2022-10-26T07:51:48;101357.94;;;11.50;100.00
69630;BME280;56857;52.212;5.496;2022-10-26T07:54:14;101361.25;;;11.52;100.00
69630;BME280;56857;52.212;5.496;2022-10-26T07:56:39;101360.94;;;11.55;100.00
69630;BME280;56857;52.212;5.496;2022-10-26T07:59:04;101357.97;;;11.58;100.00
69630;BME280;56857;52.212;5.496;2022-10-26T08:01:30;101360.09;;;11.63;100.00
69630;BME280;56857;52.212;5.496;2022-10-26T08:03:55;101362.28;;;11.67;100.00
69630;BME280;56857;52.212;5.496;2022-10-26T08:06:21;101355.50;;;11.73;100.00
69630;BME280;56857;52.212;5.496;2022-10-26T08:08:47;101355.50;;;11.81;100.00
69630;BME280;56857;52.212;5.496;2022-10-26T08:11:13;101359.34;;;11.87;100.00
69630;BME280;56857;52.212;5.496;2022-10-26T08:13:39;101361.34;;;11.93;100.00
69630;BME280;56857;52.212;5.496;2022-10-26T08:16:05;101368.47;;;12.00;100.00
69630;BME280;56857;52.212;5.496;2022-10-26T08:18:31;101382.13;;;12.05;100.00
69630;BME280;56857;52.212;5.496;2022-10-26T08:21:08;101388.41;;;12.13;100.00
69630;BME280;56857;52.212;5.496;2022-10-26T08:23:34;101385.91;;;12.19;100.00
69630;BME280;56857;52.212;5.496;2022-10-26T08:26:00;101383.41;;;12.26;100.00
69630;BME280;56857;52.212;5.496;2022-10-26T08:28:26;101382.75;;;12.32;100.00
69630;BME280;56857;52.212;5.496;2022-10-26T08:30:52;101381.75;;;12.41;100.00
69630;BME280;56857;52.212;5.496;2022-10-26T08:33:17;101384.41;;;12.49;100.00
69630;BME280;56857;52.212;5.496;2022-10-26T08:35:43;101391.53;;;12.57;100.00
69630;BME280;56857;52.212;5.496;2022-10-26T08:38:08;101394.34;;;12.64;100.00
69630;BME280;56857;52.212;5.496;2022-10-26T08:40:37;101401.31;;;12.73;100.00
69630;BME280;56857;52.212;5.496;2022-10-26T08:43:11;101398.63;;;12.81;100.00
69630;BME280;56857;52.212;5.496;2022-10-26T08:45:49;101402.28;;;12.88;100.00
69630;BME280;56857;52.212;5.496;2022-10-26T08:48:19;101393.44;;;12.96;100.00
69630;BME280;56857;52.212;5.496;2022-10-26T08:50:58;101401.06;;;13.07;100.00
69630;BME280;56857;52.212;5.496;2022-10-26T08:53:56;101408.00;;;13.16;100.00
69630;BME280;56857;52.212;5.496;2022-10-26T08:56:26;101432.47;;;13.28;100.00
69630;BME280;56857;52.212;5.496;2022-10-26T09:01:17;101417.22;;;13.45;100.00
69630;BME280;56857;52.212;5.496;2022-10-26T09:03:43;101424.84;;;13.56;100.00
69630;BME280;56857;52.212;5.496;2022-10-26T09:06:45;101419.94;;;13.68;100.00
69630;BME280;56857;52.212;5.496;2022-10-26T09:09:35;101417.69;;;13.80;100.00
69630;BME280;56857;52.212;5.496;2022-10-26T09:12:24;101408.28;;;13.92;100.00
69630;BME280;56857;52.212;5.496;2022-10-26T09:25:28;101399.88;;;14.26;100.00
69630;BME280;56857;52.212;5.496;2022-10-26T09:28:00;101399.44;;;14.37;100.00
69630;BME280;56857;52.212;5.496;2022-10-26T09:30:26;101392.63;;;14.50;100.00
69630;BME280;56857;52.212;5.496;2022-10-26T09:32:56;101387.72;;;14.62;100.00
69630;BME280;56857;52.212;5.496;2022-10-26T09:38:19;101390.59;;;14.90;100.00
69630;BME280;56857;52.212;5.496;2022-10-26T09:40:57;101399.97;;;15.00;100.00
69630;BME280;56857;52.212;5.496;2022-10-26T09:43:25;101404.78;;;15.05;100.00
69630;BME280;56857;52.212;5.496;2022-10-26T09:45:52;101397.22;;;15.09;99.47
69630;BME280;56857;52.212;5.496;2022-10-26T09:48:26;101405.22;;;15.09;99.33
69630;BME280;56857;52.212;5.496;2022-10-26T09:50:55;101423.91;;;15.09;98.74
69630;BME280;56857;52.212;5.496;2022-10-26T09:53:20;101426.59;;;15.09;98.85
69630;BME280;56857;52.212;5.496;2022-10-26T09:55:47;101433.41;;;15.11;98.29
69630;BME280;56857;52.212;5.496;2022-10-26T09:58:18;101437.56;;;15.14;98.14
69630;BME280;56857;52.212;5.496;2022-10-26T10:00:44;101434.31;;;15.18;98.17
69630;BME280;56857;52.212;5.496;2022-10-26T10:03:24;101441.59;;;15.24;98.13
69630;BME280;56857;52.212;5.496;2022-10-26T10:05:50;101453.38;;;15.30;97.91
69630;BME280;56857;52.212;5.496;2022-10-26T10:08:23;101456.97;;;15.37;97.44
69630;BME280;56857;52.212;5.496;2022-10-26T10:10:54;101452.72;;;15.43;97.83
69630;BME280;56857;52.212;5.496;2022-10-26T10:13:20;101452.63;;;15.51;97.81
69630;BME280;56857;52.212;5.496;2022-10-26T10:15:55;101458.66;;;15.60;97.80
69630;BME280;56857;52.212;5.496;2022-10-26T10:18:22;101462.94;;;15.69;97.62
69630;BME280;56857;52.212;5.496;2022-10-26T10:20:56;101466.97;;;15.80;97.46
69630;BME280;56857;52.212;5.496;2022-10-26T10:23:37;101467.28;;;15.91;97.09
69630;BME280;56857;52.212;5.496;2022-10-26T10:26:10;101472.16;;;16.03;96.29
69630;BME280;56857;52.212;5.496;2022-10-26T10:28:36;101480.50;;;16.14;96.27
69630;BME280;56857;52.212;5.496;2022-10-26T10:31:18;101471.97;;;16.26;96.72
69630;BME280;56857;52.212;5.496;2022-10-26T10:33:43;101481.34;;;16.36;95.59
69630;BME280;56857;52.212;5.496;2022-10-26T10:36:12;101481.00;;;16.46;94.71
69630;BME280;56857;52.212;5.496;2022-10-26T10:38:40;101493.25;;;16.55;94.09
69630;BME280;56857;52.212;5.496;2022-10-26T10:41:15;101490.22;;;16.65;94.04
69630;BME280;56857;52.212;5.496;2022-10-26T10:43:51;101482.72;;;16.75;92.80
69630;BME280;56857;52.212;5.496;2022-10-26T10:46:19;101487.09;;;16.83;91.33
69630;BME280;56857;52.212;5.496;2022-10-26T10:48:47;101495.38;;;16.88;91.82
69630;BME280;56857;52.212;5.496;2022-10-26T10:51:21;101512.75;;;16.99;92.22
69630;BME280;56857;52.212;5.496;2022-10-26T10:53:52;101507.44;;;17.05;92.07
69630;BME280;56857;52.212;5.496;2022-10-26T10:59:04;101519.50;;;17.23;91.15
69630;BME280;56857;52.212;5.496;2022-10-26T11:01:47;101528.84;;;17.33;91.18
69630;BME280;56857;52.212;5.496;2022-10-26T11:07:41;101526.25;;;17.47;90.26
69630;BME280;56857;52.212;5.496;2022-10-26T11:10:12;101529.97;;;17.52;90.20
69630;BME280;56857;52.212;5.496;2022-10-26T11:12:45;101536.81;;;17.61;90.56
69630;BME280;56857;52.212;5.496;2022-10-26T11:15:18;101544.31;;;17.73;90.05
69630;BME280;56857;52.212;5.496;2022-10-26T11:20:27;101553.25;;;17.80;89.11
69630;BME280;56857;52.212;5.496;2022-10-26T11:23:02;101557.16;;;17.77;89.36
69630;BME280;56857;52.212;5.496;2022-10-26T11:25:34;101569.09;;;17.75;89.46
69630;BME280;56857;52.212;5.496;2022-10-26T11:28:26;101560.81;;;17.70;89.39
69630;BME280;56857;52.212;5.496;2022-10-26T11:30:59;101561.19;;;17.67;88.42
69630;BME280;56857;52.212;5.496;2022-10-26T11:34:24;101558.09;;;17.63;88.47
69630;BME280;56857;52.212;5.496;2022-10-26T11:36:26;101564.47;;;17.62;88.30
69630;BME280;56857;52.212;5.496;2022-10-26T11:41:35;101574.31;;;17.55;88.34
69630;BME280;56857;52.212;5.496;2022-10-26T11:44:23;101573.66;;;17.46;88.67
69630;BME280;56857;52.212;5.496;2022-10-26T11:46:54;101570.53;;;17.43;88.48
69630;BME280;56857;52.212;5.496;2022-10-26T11:49:32;101577.94;;;17.34;88.56
69630;BME280;56857;52.212;5.496;2022-10-26T11:54:46;101591.41;;;17.19;88.93
69630;BME280;56857;52.212;5.496;2022-10-26T11:57:14;101587.91;;;17.19;88.35
69630;BME280;56857;52.212;5.496;2022-10-26T11:59:53;101583.94;;;17.14;88.34
69630;BME280;56857;52.212;5.496;2022-10-26T12:02:21;101581.28;;;17.14;88.21
69630;BME280;56857;52.212;5.496;2022-10-26T12:04:56;101582.75;;;17.17;88.97
69630;BME280;56857;52.212;5.496;2022-10-26T12:07:34;101584.63;;;17.23;89.10
69630;BME280;56857;52.212;5.496;2022-10-26T12:10:02;101591.06;;;17.29;88.91
69630;BME280;56857;52.212;5.496;2022-10-26T12:12:35;101589.25;;;17.36;89.02
69630;BME280;56857;52.212;5.496;2022-10-26T12:15:33;101612.59;;;17.42;88.66
69630;BME280;56857;52.212;5.496;2022-10-26T12:23:14;101610.44;;;17.59;88.65
69630;BME280;56857;52.212;5.496;2022-10-26T12:25:40;101612.50;;;17.57;88.50
69630;BME280;56857;52.212;5.496;2022-10-26T12:33:56;101602.59;;;17.86;87.56
69630;BME280;56857;52.212;5.496;2022-10-26T12:39:34;101610.03;;;17.97;87.69
69630;BME280;56857;52.212;5.496;2022-10-26T12:45:00;101618.06;;;18.32;86.78
69630;BME280;56857;52.212;5.496;2022-10-26T12:57:49;101629.41;;;18.40;85.37
69630;BME280;56857;52.212;5.496;2022-10-26T13:00:24;101625.06;;;18.33;83.64
69630;BME280;56857;52.212;5.496;2022-10-26T13:08:41;101634.66;;;18.62;82.60
69630;BME280;56857;52.212;5.496;2022-10-26T13:11:17;101618.13;;;18.71;83.02
69630;BME280;56857;52.212;5.496;2022-10-26T13:13:51;101625.81;;;18.81;82.35
69630;BME280;56857;52.212;5.496;2022-10-26T13:16:18;101625.22;;;18.86;81.20
69630;BME280;56857;52.212;5.496;2022-10-26T13:18:44;101633.47;;;18.91;81.30
69630;BME280;56857;52.212;5.496;2022-10-26T13:21:14;101621.09;;;18.96;81.06
69630;BME280;56857;52.212;5.496;2022-10-26T13:23:46;101632.06;;;18.95;80.42
69630;BME280;56857;52.212;5.496;2022-10-26T13:26:24;101629.38;;;19.02;79.98
69630;BME280;56857;52.212;5.496;2022-10-26T13:28:54;101633.47;;;18.97;80.05
69630;BME280;56857;52.212;5.496;2022-10-26T13:34:20;101638.44;;;19.01;80.14
69630;BME280;56857;52.212;5.496;2022-10-26T13:39:24;101637.41;;;18.88;78.83
69630;BME280;56857;52.212;5.496;2022-10-26T13:41:52;101643.16;;;18.79;78.28
69630;BME280;56857;52.212;5.496;2022-10-26T13:47:02;101640.41;;;18.52;79.33
69630;BME280;56857;52.212;5.496;2022-10-26T13:49:39;101641.38;;;18.38;79.91
69630;BME280;56857;52.212;5.496;2022-10-26T13:52:13;101643.63;;;18.27;80.47
69630;BME280;56857;52.212;5.496;2022-10-26T13:55:12;101645.06;;;18.23;81.59
69630;BME280;56857;52.212;5.496;2022-10-26T13:57:43;101639.84;;;18.15;81.46
69630;BME280;56857;52.212;5.496;2022-10-26T14:00:29;101638.19;;;18.08;82.06
69630;BME280;56857;52.212;5.496;2022-10-26T14:02:54;101647.66;;;18.03;82.02
69630;BME280;56857;52.212;5.496;2022-10-26T14:05:21;101637.91;;;17.96;82.67
69630;BME280;56857;52.212;5.496;2022-10-26T14:07:50;101645.75;;;17.91;83.30
69630;BME280;56857;52.212;5.496;2022-10-26T14:10:28;101649.00;;;17.86;83.80
69630;BME280;56857;52.212;5.496;2022-10-26T14:12:56;101653.72;;;17.84;84.20
69630;BME280;56857;52.212;5.496;2022-10-26T14:15:31;101655.97;;;17.80;84.60
69630;BME280;56857;52.212;5.496;2022-10-26T14:18:00;101666.09;;;17.78;84.97
69630;BME280;56857;52.212;5.496;2022-10-26T14:20:27;101662.09;;;17.74;85.28
69630;BME280;56857;52.212;5.496;2022-10-26T14:22:54;101667.66;;;17.73;85.44
69630;BME280;56857;52.212;5.496;2022-10-26T14:25:27;101676.75;;;17.72;86.13
69630;BME280;56857;52.212;5.496;2022-10-26T14:27:52;101687.66;;;17.70;86.20
69630;BME280;56857;52.212;5.496;2022-10-26T14:30:28;101693.41;;;17.67;86.38
69630;BME280;56857;52.212;5.496;2022-10-26T14:32:54;101696.31;;;17.66;86.78
69630;BME280;56857;52.212;5.496;2022-10-26T14:35:22;101693.63;;;17.66;87.03
69630;BME280;56857;52.212;5.496;2022-10-26T14:37:53;101698.97;;;17.66;87.05
69630;BME280;56857;52.212;5.496;2022-10-26T14:40:23;101703.09;;;17.68;87.16
69630;BME280;56857;52.212;5.496;2022-10-26T14:42:59;101702.91;;;17.70;87.82
69630;BME280;56857;52.212;5.496;2022-10-26T14:45:35;101698.38;;;17.70;87.88
69630;BME280;56857;52.212;5.496;2022-10-26T14:48:03;101706.25;;;17.72;88.14